Time;durP1;ratioP1;P1;durP2;ratioP2;P2;SDS_P1;SDS_P2;PMS_P1;PMS_P2;Temp;Humidity;BMP_temperature;BMP_pressure;BME280_temperature;BME280_humidity;BME280_pressure;Samples;Min_cycle;Max_cycle;Signal;HPM_P1;HPM_P2
2023/09/08 00:06:27;;;;;;;12.47;10.20;;;;;;;;;;5000301;28;20193;-86
2023/09/08 00:08:53;;;;;;;12.23;9.53;;;;;;;;;;5023662;28;20193;-86
2023/09/08 00:11:22;;;;;;;12.43;8.93;;;;;;;;;;5009468;28;20275;-86
2023/09/08 00:13:50;;;;;;;10.40;9.40;;;;;;;;;;5020156;28;20219;-86
2023/09/08 00:16:39;;;;;;;10.00;9.00;;;;;;;;;;5024929;28;20204;-86
2023/09/08 00:19:10;;;;;;;10.03;8.93;;;;;;;;;;5021634;28;20193;-86
2023/09/08 00:21:37;;;;;;;10.00;9.00;;;;;;;;;;5019321;28;20192;-86
2023/09/08 00:24:06;;;;;;;11.80;9.10;;;;;;;;;;5019176;28;20188;-86
2023/09/08 00:26:41;;;;;;;10.50;9.30;;;;;;;;;;5019115;28;20208;-86
2023/09/08 00:29:28;;;;;;;10.20;9.10;;;;;;;;;;5019518;28;20242;-86
2023/09/08 00:32:14;;;;;;;11.10;9.60;;;;;;;;;;5001986;28;20220;-86
2023/09/08 00:34:48;;;;;;;10.47;9.37;;;;;;;;;;4999815;28;20196;-86
2023/09/08 00:37:17;;;;;;;14.60;9.57;;;;;;;;;;5015777;28;20271;-86
2023/09/08 00:39:49;;;;;;;10.33;9.23;;;;;;;;;;5011737;28;20180;-86
2023/09/08 00:42:15;;;;;;;13.47;10.30;;;;;;;;;;5019275;28;20242;-86
2023/09/08 00:44:41;;;;;;;10.47;9.30;;;;;;;;;;5024559;28;20189;-87
2023/09/08 00:47:30;;;;;;;11.60;10.03;;;;;;;;;;5033662;28;20195;-86
2023/09/08 00:49:59;;;;;;;11.53;10.27;;;;;;;;;;5024348;28;20188;-86
2023/09/08 00:52:32;;;;;;;13.10;10.97;;;;;;;;;;5024157;28;20303;-85
2023/09/08 00:55:03;;;;;;;18.83;14.27;;;;;;;;;;5021095;28;20281;-87
2023/09/08 00:58:06;;;;;;;;;;;;;;;;;;;;;
2023/09/08 01:00:57;;;;;;;10.57;9.53;;;;;;;;;;5019266;28;20199;-87
2023/09/08 01:03:26;;;;;;;12.53;11.23;;;;;;;;;;5020677;28;20234;-86
2023/09/08 01:06:24;;;;;;;13.20;10.60;;;;;;;;;;5055313;28;20192;-86
2023/09/08 01:09:26;;;;;;;;;;;;;;;;;;;;;
2023/09/08 01:11:51;;;;;;;11.63;9.37;;;;;;;;;;5028221;28;20270;-86
2023/09/08 01:14:39;;;;;;;;;;;;;;;;;;;;;
2023/09/08 01:17:17;;;;;;;;;;;;;;;;;;;;;
2023/09/08 01:19:55;;;;;;;11.20;9.87;;;;;;;;;;5036009;28;20192;-86
2023/09/08 01:22:44;;;;;;;11.67;9.90;;;;;;;;;;5036208;28;20197;-86
2023/09/08 01:25:23;;;;;;;11.37;10.30;;;;;;;;;;5018115;28;20188;-86
2023/09/08 01:27:59;;;;;;;12.00;10.73;;;;;;;;;;5018275;28;20230;-86
2023/09/08 01:30:34;;;;;;;14.40;11.13;;;;;;;;;;5016109;28;20231;-86
2023/09/08 01:33:19;;;;;;;;;;;;;;;;;;;;;
2023/09/08 01:35:59;;;;;;;11.03;10.03;;;;;;;;;;5000313;28;20185;-86
2023/09/08 01:38:38;;;;;;;;;;;;;;;;;;;;;
2023/09/08 01:41:23;;;;;;;;;;;;;;;;;;;;;
2023/09/08 01:50:00;;;;;;;11.57;10.37;;;;;;;;;;4955056;28;20246;-86
2023/09/08 01:52:41;;;;;;;11.87;10.23;;;;;;;;;;4936231;29;20254;-86
2023/09/08 01:55:14;;;;;;;11.37;10.33;;;;;;;;;;4994116;28;20203;-86
2023/09/08 01:58:07;;;;;;;12.50;10.90;;;;;;;;;;5015227;28;20193;-86
2023/09/08 02:00:54;;;;;;;;;;;;;;;;;;;;;
2023/09/08 02:07:04;;;;;;;;;;;;;;;;;;;;;
2023/09/08 02:10:02;;;;;;;11.47;10.47;;;;;;;;;;5019272;28;20184;-86
2023/09/08 02:21:39;;;;;;;11.07;9.90;;;;;;;;;;4923103;29;20199;-86
2023/09/08 02:27:20;;;;;;;10.57;9.47;;;;;;;;;;4968635;28;20186;-86
2023/09/08 02:33:16;;;;;;;10.40;9.40;;;;;;;;;;5034909;28;20235;-86
2023/09/08 02:39:03;;;;;;;10.07;8.97;;;;;;;;;;5008871;28;20189;-86
2023/09/08 02:41:54;;;;;;;10.40;9.30;;;;;;;;;;5020072;28;20177;-87
2023/09/08 02:51:01;;;;;;;11.63;9.77;;;;;;;;;;4997490;28;20260;-86
2023/09/08 02:53:45;;;;;;;10.70;9.70;;;;;;;;;;5029773;28;20307;-86
2023/09/08 02:56:14;;;;;;;10.60;9.53;;;;;;;;;;5016032;28;20180;-86
2023/09/08 02:58:44;;;;;;;12.03;9.47;;;;;;;;;;5028835;28;20169;-87
2023/09/08 03:05:00;;;;;;;13.23;9.43;;;;;;;;;;5015488;28;20185;-87
2023/09/08 03:17:18;;;;;;;10.67;9.67;;;;;;;;;;4951046;29;20202;-87
2023/09/08 03:19:46;;;;;;;10.77;9.77;;;;;;;;;;4925823;29;20199;-87
2023/09/08 03:22:32;;;;;;;;;;;;;;;;;;;;;
2023/09/08 03:35:34;;;;;;;;;;;;;;;;;;;;;
2023/09/08 03:41:21;;;;;;;11.27;10.20;;;;;;;;;;4876919;29;20216;-87
2023/09/08 03:44:10;;;;;;;10.60;9.50;;;;;;;;;;4867038;29;20265;-87
2023/09/08 03:50:20;;;;;;;;;;;;;;;;;;;;;
2023/09/08 03:56:14;;;;;;;;;;;;;;;;;;;;;
2023/09/08 04:22:46;;;;;;;;;;;;;;;;;;;;;
2023/09/08 04:28:45;;;;;;;12.30;11.20;;;;;;;;;;4753335;30;20420;-88
2023/09/08 04:34:56;;;;;;;12.48;11.30;;;;;;;;;;4727283;30;20469;-86
2023/09/08 04:43:58;;;;;;;;;;;;;;;;;;;;;
2023/09/08 05:11:43;;;;;;;;;;;;;;;;;;;;;
2023/09/08 05:14:19;;;;;;;13.43;12.23;;;;;;;;;;4700982;30;20207;-87
2023/09/08 05:16:46;;;;;;;13.57;12.37;;;;;;;;;;4806878;29;20199;-88
2023/09/08 05:50:19;;;;;;;18.17;16.27;;;;;;;;;;4734995;30;20406;-84
2023/09/08 05:52:45;;;;;;;19.73;17.58;;;;;;;;;;4793686;29;20459;-83
2023/09/08 05:55:11;;;;;;;19.55;17.55;;;;;;;;;;4854555;29;20448;-84
2023/09/08 05:57:37;;;;;;;19.05;17.35;;;;;;;;;;4979852;28;20408;-83
2023/09/08 06:00:06;;;;;;;19.27;17.37;;;;;;;;;;4978301;28;20450;-83
2023/09/08 06:02:32;;;;;;;19.13;17.33;;;;;;;;;;4977818;28;20412;-83
2023/09/08 06:04:58;;;;;;;18.77;17.10;;;;;;;;;;4979108;28;20420;-83
2023/09/08 06:07:24;;;;;;;19.70;17.75;;;;;;;;;;4962427;28;20416;-84
2023/09/08 06:09:53;;;;;;;20.35;18.20;;;;;;;;;;4978528;28;20424;-83
2023/09/08 06:12:19;;;;;;;20.10;18.10;;;;;;;;;;4983905;28;20455;-83
2023/09/08 06:14:45;;;;;;;22.17;16.73;;;;;;;;;;4998748;28;20208;-83
2023/09/08 06:17:13;;;;;;;20.20;18.13;;;;;;;;;;5004722;28;20409;-84
2023/09/08 06:19:39;;;;;;;19.45;17.48;;;;;;;;;;4998807;28;20439;-84
2023/09/08 06:22:05;;;;;;;19.60;17.70;;;;;;;;;;4997299;28;20443;-83
2023/09/08 06:24:31;;;;;;;19.33;17.23;;;;;;;;;;4997444;28;20414;-83
2023/09/08 06:26:57;;;;;;;19.83;18.00;;;;;;;;;;4997419;28;20406;-84
2023/09/08 06:29:23;;;;;;;18.58;16.88;;;;;;;;;;4997202;28;20495;-84
2023/09/08 06:31:50;;;;;;;19.33;17.33;;;;;;;;;;4996879;28;20407;-83
2023/09/08 06:34:16;;;;;;;18.65;16.75;;;;;;;;;;4997120;28;20438;-85
2023/09/08 06:36:44;;;;;;;18.92;17.13;;;;;;;;;;4997532;28;20407;-84
2023/09/08 06:39:10;;;;;;;18.33;16.52;;;;;;;;;;4997303;28;20451;-84
2023/09/08 06:41:36;;;;;;;18.70;16.92;;;;;;;;;;4997164;28;20415;-84
2023/09/08 06:44:02;;;;;;;17.40;15.70;;;;;;;;;;4994365;28;20178;-84
2023/09/08 06:46:31;;;;;;;17.70;16.00;;;;;;;;;;4997034;28;20466;-84
2023/09/08 06:48:57;;;;;;;18.27;16.60;;;;;;;;;;5013137;28;20410;-83
2023/09/08 06:51:23;;;;;;;18.70;16.20;;;;;;;;;;4981708;28;20437;-83
2023/09/08 06:53:59;;;;;;;17.33;15.68;;;;;;;;;;5000483;28;20431;-87
2023/09/08 06:56:26;;;;;;;17.55;15.75;;;;;;;;;;5010242;28;20414;-86
2023/09/08 06:58:52;;;;;;;17.97;15.30;;;;;;;;;;5016649;28;20177;-83
2023/09/08 07:01:18;;;;;;;17.23;15.60;;;;;;;;;;4998063;28;20219;-87
2023/09/08 07:03:45;;;;;;;16.95;15.40;;;;;;;;;;5016548;28;20413;-87
2023/09/08 07:06:14;;;;;;;17.73;15.93;;;;;;;;;;5017026;28;20173;-87
2023/09/08 07:08:40;;;;;;;18.17;16.38;;;;;;;;;;5000555;28;20437;-87
2023/09/08 07:11:06;;;;;;;18.80;17.08;;;;;;;;;;5016034;28;20471;-87
2023/09/08 07:13:35;;;;;;;19.40;17.70;;;;;;;;;;5001903;28;20443;-87
2023/09/08 07:16:01;;;;;;;18.53;16.73;;;;;;;;;;4980860;28;20423;-86
2023/09/08 07:18:28;;;;;;;18.42;16.52;;;;;;;;;;4999767;28;20402;-87
2023/09/08 07:20:56;;;;;;;18.60;16.80;;;;;;;;;;4998480;28;20445;-87
2023/09/08 07:23:22;;;;;;;19.50;17.63;;;;;;;;;;4995893;28;20423;-87
2023/09/08 07:25:49;;;;;;;20.00;18.13;;;;;;;;;;4979644;28;20480;-86
2023/09/08 07:28:15;;;;;;;19.65;17.67;;;;;;;;;;4998937;28;20438;-87
2023/09/08 07:30:41;;;;;;;20.17;18.13;;;;;;;;;;4996243;28;20423;-88
2023/09/08 07:33:08;;;;;;;19.17;17.45;;;;;;;;;;4989249;28;20431;-86
2023/09/08 07:35:37;;;;;;;19.90;18.00;;;;;;;;;;4990223;28;20422;-86
2023/09/08 07:38:03;;;;;;;19.70;17.90;;;;;;;;;;4999207;28;20481;-86
2023/09/08 07:40:29;;;;;;;19.50;17.70;;;;;;;;;;4986763;28;20443;-86
2023/09/08 07:42:55;;;;;;;20.35;18.35;;;;;;;;;;5002513;28;20497;-87
2023/09/08 07:45:21;;;;;;;21.20;18.23;;;;;;;;;;4976113;28;20422;-85
2023/09/08 07:47:49;;;;;;;20.83;18.63;;;;;;;;;;4980834;28;20457;-86
2023/09/08 07:50:36;;;;;;;20.38;18.38;;;;;;;;;;5004647;28;20473;-87
2023/09/08 07:53:02;;;;;;;19.92;18.00;;;;;;;;;;4998106;28;20432;-86
2023/09/08 07:55:28;;;;;;;19.55;17.67;;;;;;;;;;5013243;28;20493;-87
2023/09/08 07:57:55;;;;;;;20.20;18.30;;;;;;;;;;4980847;28;20498;-86
2023/09/08 08:00:21;;;;;;;20.30;18.20;;;;;;;;;;4995118;28;20403;-87
2023/09/08 08:02:48;;;;;;;20.23;18.25;;;;;;;;;;4979497;28;20423;-86
2023/09/08 08:05:15;;;;;;;19.53;17.73;;;;;;;;;;4995155;28;20423;-91
2023/09/08 08:07:45;;;;;;;20.02;18.05;;;;;;;;;;4995432;28;20415;-89
2023/09/08 08:10:12;;;;;;;20.42;18.30;;;;;;;;;;4995863;28;20415;-89
2023/09/08 08:12:39;;;;;;;20.20;18.30;;;;;;;;;;4995770;28;20511;-88
2023/09/08 08:15:07;;;;;;;20.25;18.35;;;;;;;;;;4995496;28;20415;-89
2023/09/08 08:17:33;;;;;;;20.15;18.25;;;;;;;;;;4991030;28;20421;-88
2023/09/08 08:20:06;;;;;;;20.73;17.52;;;;;;;;;;4999545;28;20250;-87
2023/09/08 08:22:32;;;;;;;18.42;16.73;;;;;;;;;;4996356;28;20188;-88
2023/09/08 08:24:58;;;;;;;17.55;15.85;;;;;;;;;;5009078;28;20206;-88
2023/09/08 08:27:27;;;;;;;18.70;16.80;;;;;;;;;;4993656;28;20186;-88
2023/09/08 08:29:53;;;;;;;18.50;16.67;;;;;;;;;;4975440;28;20196;-88
2023/09/08 08:32:19;;;;;;;16.87;15.37;;;;;;;;;;4995571;28;20197;-89
2023/09/08 08:34:46;;;;;;;18.83;16.98;;;;;;;;;;4996451;28;20185;-93
2023/09/08 08:43:48;;;;;;;17.77;15.50;;;;;;;;;;5017383;28;20164;-92
2023/09/08 08:56:00;;;;;;;;;;;;;;;;;;;;;
2023/09/08 08:58:57;;;;;;;15.13;12.57;;;;;;;;;;4935181;29;20184;-94
2023/09/08 09:11:03;;;;;;;12.93;10.90;;;;;;;;;;4753634;30;20202;-89
2023/09/08 09:13:29;;;;;;;13.93;12.07;;;;;;;;;;4821486;29;20236;-88
2023/09/08 09:16:03;;;;;;;12.85;11.55;;;;;;;;;;4904465;29;20345;-87
2023/09/08 09:18:30;;;;;;;13.00;11.80;;;;;;;;;;4881650;29;20197;-86
2023/09/08 09:21:03;;;;;;;11.52;10.48;;;;;;;;;;4899047;29;20193;-88
2023/09/08 09:23:33;;;;;;;14.40;11.90;;;;;;;;;;4899235;29;20239;-87
2023/09/08 09:26:06;;;;;;;14.25;11.35;;;;;;;;;;4896384;29;20260;-88
2023/09/08 09:28:35;;;;;;;14.30;12.90;;;;;;;;;;4951571;28;20281;-86
2023/09/08 09:31:01;;;;;;;13.15;10.80;;;;;;;;;;4992877;28;20187;-87
2023/09/08 09:33:28;;;;;;;13.27;9.82;;;;;;;;;;4960244;28;20219;-88
2023/09/08 09:35:58;;;;;;;13.55;12.25;;;;;;;;;;4975784;28;20179;-88
2023/09/08 09:38:26;;;;;;;13.57;12.25;;;;;;;;;;4974794;28;20230;-87
2023/09/08 09:40:55;;;;;;;12.20;10.93;;;;;;;;;;4959380;28;20179;-88
2023/09/08 09:43:22;;;;;;;12.63;11.43;;;;;;;;;;4959574;28;20230;-87
2023/09/08 09:45:49;;;;;;;13.25;10.57;;;;;;;;;;4960241;28;20175;-88
2023/09/08 09:48:18;;;;;;;13.40;12.02;;;;;;;;;;4959287;28;20167;-88
2023/09/08 09:50:44;;;;;;;13.75;9.90;;;;;;;;;;4967903;28;20178;-87
2023/09/08 09:53:12;;;;;;;13.02;11.32;;;;;;;;;;4978674;28;20252;-88
2023/09/08 09:55:46;;;;;;;13.68;10.80;;;;;;;;;;4978664;28;20201;-88
2023/09/08 09:58:15;;;;;;;13.75;10.55;;;;;;;;;;4978958;28;20236;-88
2023/09/08 10:00:45;;;;;;;13.73;10.27;;;;;;;;;;4979143;28;20182;-88
2023/09/08 10:03:14;;;;;;;16.48;13.70;;;;;;;;;;4979274;28;20186;-86
2023/09/08 10:05:40;;;;;;;11.98;10.15;;;;;;;;;;4977615;28;20186;-86
2023/09/08 10:08:06;;;;;;;13.23;12.02;;;;;;;;;;4998355;28;20187;-85
2023/09/08 10:10:36;;;;;;;13.05;10.25;;;;;;;;;;4978666;28;20266;-83
2023/09/08 10:13:03;;;;;;;14.73;10.82;;;;;;;;;;4997171;28;20217;-83
2023/09/08 10:15:31;;;;;;;13.10;11.35;;;;;;;;;;4998145;28;20249;-83
2023/09/08 10:17:59;;;;;;;14.40;12.40;;;;;;;;;;4998028;28;20173;-83
2023/09/08 10:20:26;;;;;;;13.57;12.25;;;;;;;;;;4997902;28;20177;-83
2023/09/08 10:23:12;;;;;;;12.40;10.50;;;;;;;;;;4998068;28;20181;-83
2023/09/08 10:25:43;;;;;;;10.85;9.80;;;;;;;;;;4997587;28;20173;-83
2023/09/08 10:28:09;;;;;;;16.40;13.80;;;;;;;;;;4997529;28;20192;-83
2023/09/08 10:30:36;;;;;;;14.18;12.85;;;;;;;;;;4997706;28;20189;-84
2023/09/08 10:33:02;;;;;;;13.80;12.40;;;;;;;;;;4997317;28;20212;-84
2023/09/08 10:35:29;;;;;;;15.23;13.60;;;;;;;;;;4997564;28;20205;-83
2023/09/08 10:38:14;;;;;;;13.05;11.57;;;;;;;;;;4997202;28;20181;-83
2023/09/08 10:40:40;;;;;;;15.73;13.88;;;;;;;;;;4997292;28;20213;-84
2023/09/08 10:43:07;;;;;;;14.63;13.05;;;;;;;;;;4981072;28;20181;-83
2023/09/08 10:45:33;;;;;;;11.88;10.65;;;;;;;;;;4981274;28;20211;-83
2023/09/08 10:48:02;;;;;;;13.43;12.13;;;;;;;;;;4997221;28;20182;-84
2023/09/08 10:50:33;;;;;;;13.52;12.32;;;;;;;;;;4980214;28;20186;-83
2023/09/08 10:53:06;;;;;;;14.10;12.52;;;;;;;;;;4995223;28;20209;-83
2023/09/08 10:55:47;;;;;;;12.43;11.32;;;;;;;;;;4980148;28;20261;-84
2023/09/08 10:58:20;;;;;;;11.75;10.60;;;;;;;;;;4980804;28;20173;-83
2023/09/08 11:00:59;;;;;;;13.95;12.57;;;;;;;;;;4980613;28;20185;-84
2023/09/08 11:03:43;;;;;;;15.27;12.35;;;;;;;;;;4996716;28;20173;-83
2023/09/08 11:06:10;;;;;;;11.18;10.15;;;;;;;;;;4997160;28;20259;-83
2023/09/08 11:08:43;;;;;;;11.77;10.65;;;;;;;;;;4992762;28;20177;-83
2023/09/08 11:11:13;;;;;;;14.63;13.32;;;;;;;;;;4977412;28;20177;-84
2023/09/08 11:13:45;;;;;;;12.68;11.40;;;;;;;;;;4977542;28;20260;-83
2023/09/08 11:16:11;;;;;;;15.20;13.48;;;;;;;;;;4962145;28;20189;-83
2023/09/08 11:18:42;;;;;;;11.82;10.60;;;;;;;;;;4977582;28;20224;-83
2023/09/08 11:21:08;;;;;;;13.80;12.50;;;;;;;;;;4977570;28;20189;-84
2023/09/08 11:23:35;;;;;;;13.13;11.90;;;;;;;;;;4961546;28;20209;-86
2023/09/08 11:26:01;;;;;;;9.68;8.68;;;;;;;;;;4976971;28;20178;-86
2023/09/08 11:28:28;;;;;;;11.23;9.15;;;;;;;;;;4977001;28;20185;-86
2023/09/08 11:30:55;;;;;;;10.75;9.70;;;;;;;;;;4961296;28;20186;-85
2023/09/08 11:33:25;;;;;;;12.57;11.35;;;;;;;;;;4976967;28;20205;-87
2023/09/08 11:35:52;;;;;;;14.10;12.73;;;;;;;;;;4989852;28;20178;-86
2023/09/08 11:38:24;;;;;;;11.70;10.50;;;;;;;;;;4996497;28;20177;-85
2023/09/08 11:40:51;;;;;;;9.05;7.75;;;;;;;;;;4996528;28;20224;-84
2023/09/08 11:43:17;;;;;;;12.05;9.90;;;;;;;;;;4996628;28;20232;-85
2023/09/08 11:45:43;;;;;;;9.40;8.38;;;;;;;;;;4980503;28;20236;-85
2023/09/08 11:48:10;;;;;;;8.95;7.85;;;;;;;;;;4996194;28;20181;-86
2023/09/08 11:50:36;;;;;;;8.57;6.25;;;;;;;;;;4996161;28;20258;-85
2023/09/08 11:53:02;;;;;;;8.55;6.28;;;;;;;;;;4979431;28;20224;-86
2023/09/08 11:55:31;;;;;;;8.35;7.00;;;;;;;;;;4995928;28;20177;-85
2023/09/08 11:57:57;;;;;;;7.68;6.97;;;;;;;;;;4994402;28;20177;-85
2023/09/08 12:00:29;;;;;;;11.60;7.05;;;;;;;;;;4980117;28;20239;-85
2023/09/08 12:02:56;;;;;;;8.80;7.63;;;;;;;;;;4995816;28;20192;-85
2023/09/08 12:05:23;;;;;;;12.00;8.02;;;;;;;;;;4996851;28;20186;-85
2023/09/08 12:07:50;;;;;;;7.55;6.80;;;;;;;;;;4996978;28;20204;-85
2023/09/08 12:10:18;;;;;;;6.82;6.10;;;;;;;;;;4998366;28;20177;-86
2023/09/08 12:12:55;;;;;;;7.50;6.07;;;;;;;;;;5000129;28;20241;-85
2023/09/08 12:15:37;;;;;;;8.05;7.25;;;;;;;;;;5000397;28;20189;-85
2023/09/08 12:18:15;;;;;;;13.82;6.70;;;;;;;;;;4984015;28;20236;-85
2023/09/08 12:20:41;;;;;;;8.05;6.75;;;;;;;;;;5000279;28;20174;-85
2023/09/08 12:23:16;;;;;;;7.20;6.50;;;;;;;;;;4984379;28;20272;-86
2023/09/08 12:25:48;;;;;;;10.50;6.55;;;;;;;;;;4999933;28;20180;-86
2023/09/08 12:28:15;;;;;;;8.65;7.50;;;;;;;;;;5000543;28;20228;-85
2023/09/08 12:30:44;;;;;;;8.48;6.32;;;;;;;;;;4999595;28;20173;-89
2023/09/08 12:33:11;;;;;;;6.53;5.63;;;;;;;;;;5000198;28;20205;-86
2023/09/08 12:35:37;;;;;;;10.52;6.55;;;;;;;;;;4999972;28;20177;-85
2023/09/08 12:38:05;;;;;;;7.93;6.00;;;;;;;;;;4984029;28;20188;-85
2023/09/08 12:40:31;;;;;;;8.02;5.93;;;;;;;;;;4999908;28;20212;-86
2023/09/08 12:42:58;;;;;;;7.72;6.82;;;;;;;;;;4999751;28;20187;-86
2023/09/08 12:45:29;;;;;;;11.07;9.98;;;;;;;;;;4999697;28;20281;-86
2023/09/08 12:47:57;;;;;;;10.27;8.98;;;;;;;;;;4999478;28;20202;-85
2023/09/08 12:50:24;;;;;;;8.68;7.90;;;;;;;;;;4999863;28;20193;-86
2023/09/08 12:52:50;;;;;;;9.88;7.28;;;;;;;;;;4999710;28;20217;-85
2023/09/08 12:55:16;;;;;;;12.45;8.40;;;;;;;;;;4983655;28;20200;-84
2023/09/08 12:57:42;;;;;;;8.88;7.72;;;;;;;;;;4999604;28;20223;-84
2023/09/08 13:00:08;;;;;;;8.63;7.82;;;;;;;;;;4999125;28;20256;-84
2023/09/08 13:02:34;;;;;;;8.85;7.65;;;;;;;;;;4999707;28;20181;-83
2023/09/08 13:05:01;;;;;;;9.30;7.30;;;;;;;;;;4999119;28;20245;-81
2023/09/08 13:07:27;;;;;;;11.18;7.25;;;;;;;;;;4982913;28;20185;-81
2023/09/08 13:09:56;;;;;;;9.15;7.10;;;;;;;;;;4999007;28;20268;-81
2023/09/08 13:12:22;;;;;;;9.43;6.47;;;;;;;;;;4982839;28;20185;-81
2023/09/08 13:14:49;;;;;;;7.10;6.40;;;;;;;;;;4998817;28;20182;-81
2023/09/08 13:17:15;;;;;;;7.50;6.80;;;;;;;;;;4999011;28;20177;-81
2023/09/08 13:19:42;;;;;;;9.18;7.20;;;;;;;;;;4998873;28;20177;-81
2023/09/08 13:22:08;;;;;;;9.40;6.78;;;;;;;;;;4981642;28;20173;-81
2023/09/08 13:24:34;;;;;;;7.75;6.78;;;;;;;;;;4982580;28;20184;-81
2023/09/08 13:27:03;;;;;;;9.98;6.75;;;;;;;;;;4998441;28;20196;-81
2023/09/08 13:29:29;;;;;;;9.93;6.90;;;;;;;;;;4998777;28;20173;-81
2023/09/08 13:31:55;;;;;;;9.75;6.43;;;;;;;;;;4998424;28;20264;-81
2023/09/08 13:34:22;;;;;;;11.05;7.18;;;;;;;;;;4982212;28;20228;-81
2023/09/08 13:36:48;;;;;;;8.40;6.68;;;;;;;;;;4998589;28;20180;-81
2023/09/08 13:39:14;;;;;;;7.70;6.63;;;;;;;;;;4998436;28;20196;-81
2023/09/08 13:41:46;;;;;;;9.48;6.53;;;;;;;;;;4982224;28;20182;-81
2023/09/08 13:44:12;;;;;;;9.05;6.00;;;;;;;;;;4998790;28;20184;-81
2023/09/08 13:46:39;;;;;;;8.27;6.38;;;;;;;;;;4982118;28;20181;-81
2023/09/08 13:49:05;;;;;;;9.82;5.68;;;;;;;;;;4982191;28;20192;-81
2023/09/08 13:51:32;;;;;;;8.68;6.53;;;;;;;;;;4981828;28;20224;-81
2023/09/08 13:53:58;;;;;;;7.15;5.90;;;;;;;;;;4982190;28;20213;-81
2023/09/08 13:56:24;;;;;;;9.82;6.13;;;;;;;;;;4998283;28;20264;-81
2023/09/08 13:58:50;;;;;;;8.38;5.78;;;;;;;;;;4982232;28;20212;-86
2023/09/08 14:01:17;;;;;;;8.13;6.40;;;;;;;;;;4981994;28;20184;-85
2023/09/08 14:03:43;;;;;;;6.63;6.00;;;;;;;;;;4998024;28;20184;-85
2023/09/08 14:06:09;;;;;;;8.77;6.40;;;;;;;;;;4998143;28;20173;-85
2023/09/08 14:08:37;;;;;;;8.98;6.32;;;;;;;;;;4997741;28;20264;-85
2023/09/08 14:11:03;;;;;;;8.65;5.93;;;;;;;;;;4998072;28;20190;-85
2023/09/08 14:13:29;;;;;;;9.07;5.68;;;;;;;;;;4982277;28;20241;-85
2023/09/08 14:15:55;;;;;;;7.47;6.30;;;;;;;;;;4998219;28;20192;-85
2023/09/08 14:18:21;;;;;;;6.40;5.80;;;;;;;;;;4982330;28;20196;-85
2023/09/08 14:20:47;;;;;;;7.00;6.13;;;;;;;;;;4982032;28;20181;-85
2023/09/08 14:23:13;;;;;;;6.22;5.63;;;;;;;;;;4997972;28;20177;-85
2023/09/08 14:25:39;;;;;;;8.20;6.40;;;;;;;;;;4982196;28;20205;-85
2023/09/08 14:28:05;;;;;;;9.25;6.22;;;;;;;;;;4985444;28;20181;-85
2023/09/08 14:30:31;;;;;;;10.45;5.90;;;;;;;;;;5000416;28;20185;-85
2023/09/08 14:32:57;;;;;;;8.93;6.20;;;;;;;;;;4981935;28;20209;-85
2023/09/08 14:35:23;;;;;;;10.23;6.22;;;;;;;;;;4982219;28;20189;-85
2023/09/08 14:37:49;;;;;;;7.95;6.07;;;;;;;;;;4981559;28;20177;-85
2023/09/08 14:40:18;;;;;;;10.93;6.32;;;;;;;;;;4997810;28;20211;-85
2023/09/08 14:42:44;;;;;;;6.60;6.00;;;;;;;;;;4999206;28;20212;-85
2023/09/08 14:45:11;;;;;;;6.82;5.65;;;;;;;;;;4998472;28;20183;-85
2023/09/08 14:47:37;;;;;;;7.07;5.88;;;;;;;;;;4981279;28;20220;-84
2023/09/08 14:50:03;;;;;;;8.10;6.05;;;;;;;;;;4997531;28;20177;-81
2023/09/08 14:52:29;;;;;;;7.32;6.25;;;;;;;;;;4996970;28;20197;-80
2023/09/08 14:54:55;;;;;;;6.30;5.70;;;;;;;;;;4981375;28;20230;-80
2023/09/08 14:57:21;;;;;;;6.85;6.10;;;;;;;;;;4997204;28;20184;-80
2023/09/08 14:59:47;;;;;;;8.95;6.43;;;;;;;;;;5000214;28;20181;-80
2023/09/08 15:02:13;;;;;;;10.18;6.45;;;;;;;;;;5002873;28;20237;-80
2023/09/08 15:04:39;;;;;;;7.13;5.90;;;;;;;;;;4985043;28;20193;-80
2023/09/08 15:07:05;;;;;;;6.78;6.15;;;;;;;;;;4999830;28;20201;-80
2023/09/08 15:09:31;;;;;;;8.90;7.03;;;;;;;;;;4981233;28;20184;-80
2023/09/08 15:11:57;;;;;;;6.75;6.03;;;;;;;;;;4996956;28;20180;-80
2023/09/08 15:14:23;;;;;;;8.88;6.30;;;;;;;;;;4980391;28;20233;-80
2023/09/08 15:16:49;;;;;;;8.20;6.68;;;;;;;;;;4981397;28;20185;-85
2023/09/08 15:19:15;;;;;;;7.60;6.60;;;;;;;;;;4981293;28;20255;-84
2023/09/08 15:21:42;;;;;;;7.65;6.28;;;;;;;;;;4997834;28;20240;-85
2023/09/08 15:24:08;;;;;;;8.82;6.13;;;;;;;;;;4982434;28;20185;-84
2023/09/08 15:26:34;;;;;;;11.02;6.97;;;;;;;;;;4980873;28;20217;-85
2023/09/08 15:29:00;;;;;;;8.70;6.30;;;;;;;;;;4997350;28;20185;-85
2023/09/08 15:31:26;;;;;;;9.18;6.53;;;;;;;;;;4981287;28;20185;-85
2023/09/08 15:33:52;;;;;;;7.38;6.47;;;;;;;;;;4980878;28;20209;-85
2023/09/08 15:36:18;;;;;;;8.32;6.82;;;;;;;;;;4997279;28;20173;-85
2023/09/08 15:38:44;;;;;;;8.80;6.43;;;;;;;;;;4981088;28;20211;-85
2023/09/08 15:41:12;;;;;;;7.35;6.50;;;;;;;;;;4997401;28;20169;-85
2023/09/08 15:43:39;;;;;;;9.85;7.13;;;;;;;;;;4996986;28;20264;-85
2023/09/08 15:46:06;;;;;;;10.20;6.72;;;;;;;;;;5000030;28;20178;-85
2023/09/08 15:48:33;;;;;;;12.73;6.57;;;;;;;;;;5001424;28;20181;-85
2023/09/08 15:50:59;;;;;;;8.95;6.88;;;;;;;;;;5001232;28;20209;-85
2023/09/08 15:53:25;;;;;;;8.35;6.43;;;;;;;;;;5000843;28;20240;-84
2023/09/08 15:55:51;;;;;;;9.05;6.78;;;;;;;;;;4985148;28;20204;-84
2023/09/08 15:58:20;;;;;;;9.45;7.10;;;;;;;;;;4984532;28;20177;-86
2023/09/08 16:00:46;;;;;;;10.57;7.03;;;;;;;;;;4997350;28;20181;-85
2023/09/08 16:03:12;;;;;;;11.27;7.35;;;;;;;;;;4984241;28;20328;-86
2023/09/08 16:05:38;;;;;;;7.00;6.30;;;;;;;;;;4981166;28;20293;-85
2023/09/08 16:08:04;;;;;;;9.50;6.65;;;;;;;;;;4994416;28;20185;-86
2023/09/08 16:10:30;;;;;;;7.70;6.90;;;;;;;;;;5000724;28;20204;-85
2023/09/08 16:12:58;;;;;;;8.38;7.28;;;;;;;;;;4993822;28;20210;-85
2023/09/08 16:15:24;;;;;;;7.80;7.00;;;;;;;;;;5019454;28;20181;-85
2023/09/08 16:17:50;;;;;;;10.52;7.07;;;;;;;;;;5019499;28;20176;-84
2023/09/08 16:20:17;;;;;;;9.02;7.28;;;;;;;;;;5019949;28;20180;-84
2023/09/08 16:22:43;;;;;;;7.78;7.03;;;;;;;;;;4986216;28;20192;-85
2023/09/08 16:25:09;;;;;;;7.00;6.38;;;;;;;;;;4983037;28;20189;-85
2023/09/08 16:27:35;;;;;;;8.88;7.00;;;;;;;;;;5000215;28;20221;-84
2023/09/08 16:30:01;;;;;;;13.73;7.32;;;;;;;;;;4973904;28;20186;-84
2023/09/08 16:32:27;;;;;;;8.15;7.20;;;;;;;;;;5001221;28;20222;-83
2023/09/08 16:34:53;;;;;;;7.97;7.25;;;;;;;;;;4983649;28;20189;-84
2023/09/08 16:37:19;;;;;;;11.77;7.63;;;;;;;;;;4979981;28;20214;-84
2023/09/08 16:39:45;;;;;;;8.70;7.75;;;;;;;;;;4980155;28;20181;-84
2023/09/08 16:42:15;;;;;;;8.57;7.35;;;;;;;;;;4979842;28;20182;-83
2023/09/08 16:44:44;;;;;;;10.82;7.40;;;;;;;;;;4979693;28;20174;-84
2023/09/08 16:47:11;;;;;;;7.80;7.00;;;;;;;;;;4993270;28;20280;-84
2023/09/08 16:49:37;;;;;;;10.70;7.18;;;;;;;;;;4983208;28;20193;-84
2023/09/08 16:52:03;;;;;;;8.25;7.45;;;;;;;;;;4999487;28;20201;-84
2023/09/08 16:54:29;;;;;;;10.05;6.90;;;;;;;;;;4982313;28;20232;-84
2023/09/08 16:56:55;;;;;;;7.90;7.07;;;;;;;;;;4982433;28;20194;-84
2023/09/08 16:59:22;;;;;;;9.50;7.30;;;;;;;;;;4982411;28;20185;-84
2023/09/08 17:01:49;;;;;;;8.15;7.25;;;;;;;;;;4999266;28;20181;-84
2023/09/08 17:04:15;;;;;;;10.27;6.80;;;;;;;;;;4991091;28;20192;-83
2023/09/08 17:06:41;;;;;;;9.00;7.05;;;;;;;;;;4978547;28;20228;-83
2023/09/08 17:09:14;;;;;;;7.97;7.22;;;;;;;;;;4992921;28;20220;-83
2023/09/08 17:11:40;;;;;;;12.27;7.60;;;;;;;;;;5016635;28;20183;-82
2023/09/08 17:14:09;;;;;;;9.20;7.13;;;;;;;;;;4982790;28;20260;-85
2023/09/08 17:16:35;;;;;;;10.15;7.53;;;;;;;;;;4997930;28;20182;-84
2023/09/08 17:19:01;;;;;;;11.40;7.93;;;;;;;;;;5002457;28;20176;-84
2023/09/08 17:21:28;;;;;;;11.60;7.72;;;;;;;;;;5019661;28;20176;-84
2023/09/08 17:23:54;;;;;;;11.80;8.32;;;;;;;;;;5002262;28;20271;-84
2023/09/08 17:26:20;;;;;;;9.95;7.40;;;;;;;;;;5002281;28;20235;-84
2023/09/08 17:28:46;;;;;;;9.20;7.55;;;;;;;;;;5000785;28;20176;-84
2023/09/08 17:31:12;;;;;;;12.55;7.70;;;;;;;;;;5018206;28;20183;-84
2023/09/08 17:33:38;;;;;;;10.50;8.15;;;;;;;;;;5001981;28;20208;-84
2023/09/08 17:36:05;;;;;;;11.02;8.32;;;;;;;;;;5018262;28;20174;-84
2023/09/08 17:38:31;;;;;;;8.50;7.70;;;;;;;;;;5018286;28;20238;-84
2023/09/08 17:40:58;;;;;;;8.90;7.60;;;;;;;;;;5001947;28;20181;-84
2023/09/08 17:43:26;;;;;;;10.60;8.20;;;;;;;;;;5017934;28;20173;-85
2023/09/08 17:45:52;;;;;;;8.85;7.95;;;;;;;;;;5018166;28;20183;-84
2023/09/08 17:48:18;;;;;;;9.13;8.15;;;;;;;;;;5001711;28;20177;-84
2023/09/08 17:50:44;;;;;;;14.00;8.93;;;;;;;;;;4986773;28;20190;-84
2023/09/08 17:53:10;;;;;;;16.55;10.73;;;;;;;;;;4992515;28;20213;-84
2023/09/08 17:55:36;;;;;;;14.63;10.98;;;;;;;;;;5017546;28;20203;-84
2023/09/08 17:58:03;;;;;;;26.13;13.32;;;;;;;;;;5001748;28;20181;-86
2023/09/08 18:00:29;;;;;;;20.10;13.40;;;;;;;;;;4998250;28;20177;-85
2023/09/08 18:02:55;;;;;;;11.48;9.40;;;;;;;;;;4981865;28;20277;-88
2023/09/08 18:05:21;;;;;;;16.23;8.75;;;;;;;;;;4982396;28;20182;-87
2023/09/08 18:07:47;;;;;;;14.80;9.05;;;;;;;;;;4981478;28;20185;-87
2023/09/08 18:10:13;;;;;;;12.30;9.85;;;;;;;;;;4993978;28;20429;-86
2023/09/08 18:12:40;;;;;;;11.63;9.73;;;;;;;;;;5004183;28;20181;-85